Route Details

Aircraft Information
Group: Trans-Atlantic Ops
Types: B744, MD11, B763
Route Data
Distance: 3862nm
Duration: 0h 00m
Origin METAR: KCVG 190952Z 16004KT 10SM OVC250 24/23 A3021 RMK AO2 SLP217 T02440228
Dest. METAR: EDDP 190950Z AUTO 35007KT 320V030 9999 BKN012 BKN017 OVC042 16/14 Q1016 NOSIG
Freight Data
(for Jun 19, 2024)
Load Factor:
51%
Manifested Cargo: 106,016lbs
Financial History
Total Freight: 0lbs
Average Load: 0lbs/flt
Fuel Used: 0lbs
Avg. Fuel Used: 0lbs/flt
Fuel Expense: $0
Avg. Fuel Expense: $0
Avg. Fuel Cost: $0/lbs
Total Gross Income: $0
Pilot Pay: $0
Total Expenses: $0
Total Revenue: $0
Average Revenue: $0

Capitol Logistics 369




KCVG
Cincinnati/Northern Kentucky International Airport
Covington, Kentucky
EDDP
Leipzig Halle Airport
Leipzig,

Activity Log

Date Flight Route Aircraft Duration
No Flights Yet